Time;durP1;ratioP1;P1;durP2;ratioP2;P2;SDS_P1;SDS_P2;PMS_P1;PMS_P2;Temp;Humidity;BMP_temperature;BMP_pressure;BME280_temperature;BME280_humidity;BME280_pressure;Samples;Min_cycle;Max_cycle;Signal;HPM_P1;HPM_P2
2022/08/17 00:00:55;;;;;;;4.35;3.13;;;;;;;18.26;100.00;90781.50;4991696;28;20065;-68
2022/08/17 00:03:24;;;;;;;4.45;3.58;;;;;;;18.21;100.00;90781.81;4991885;28;20030;-68
2022/08/17 00:06:15;;;;;;;3.92;3.30;;;;;;;18.14;100.00;90768.22;4992309;28;20034;-67
2022/08/17 00:08:52;;;;;;;4.13;3.28;;;;;;;18.00;100.00;90759.91;4995505;28;20042;-68
2022/08/17 00:11:27;;;;;;;4.43;3.20;;;;;;;18.09;100.00;90776.59;4995454;28;20052;-68
2022/08/17 00:13:56;;;;;;;4.72;3.33;;;;;;;18.11;100.00;90768.94;4995232;28;20552;-67
2022/08/17 00:16:28;;;;;;;5.05;3.22;;;;;;;18.05;100.00;90773.06;4995318;28;20045;-67
2022/08/17 00:18:53;;;;;;;3.60;3.22;;;;;;;18.11;100.00;90784.31;4995338;28;20027;-67
2022/08/17 00:21:21;;;;;;;4.28;3.38;;;;;;;18.11;100.00;90784.31;4995232;28;20030;-67
2022/08/17 00:23:46;;;;;;;4.93;3.40;;;;;;;18.09;100.00;90781.97;4995082;28;20411;-68
2022/08/17 00:26:13;;;;;;;4.35;3.35;;;;;;;18.01;100.00;90785.69;4995133;28;20026;-67
2022/08/17 00:28:39;;;;;;;4.78;3.22;;;;;;;17.86;100.00;90783.88;4995358;28;20576;-68
2022/08/17 00:31:07;;;;;;;4.15;3.28;;;;;;;17.80;100.00;90777.19;4994928;28;20065;-68
2022/08/17 00:33:33;;;;;;;4.70;3.33;;;;;;;17.66;100.00;90778.44;4994941;28;20027;-68
2022/08/17 00:36:00;;;;;;;3.97;3.28;;;;;;;17.62;100.00;90772.22;4994697;28;20149;-68
2022/08/17 00:38:26;;;;;;;5.53;3.10;;;;;;;17.52;100.00;90774.72;4994997;28;20105;-68
2022/08/17 00:41:08;;;;;;;4.28;3.25;;;;;;;17.48;100.00;90780.00;4994919;28;20101;-67
2022/08/17 00:43:38;;;;;;;5.22;3.25;;;;;;;17.46;100.00;90771.53;4994721;28;20030;-68
2022/08/17 00:46:16;;;;;;;5.63;3.20;;;;;;;17.50;100.00;90776.97;4994800;28;20034;-68
2022/08/17 00:48:42;;;;;;;6.35;2.97;;;;;;;17.46;100.00;90768.06;4994607;28;20120;-68
2022/08/17 00:51:32;;;;;;;6.07;3.38;;;;;;;17.46;100.00;90779.59;4994587;28;20129;-68
2022/08/17 00:54:21;;;;;;;5.05;3.22;;;;;;;17.45;100.00;90769.19;4994490;28;20102;-68
2022/08/17 00:56:59;;;;;;;4.25;3.25;;;;;;;17.41;100.00;90766.44;4994633;28;20073;-68
2022/08/17 00:59:31;;;;;;;4.90;3.63;;;;;;;17.40;100.00;90764.09;4994578;28;20037;-68
2022/08/17 01:01:57;;;;;;;3.70;3.30;;;;;;;17.31;100.00;90767.00;4994449;28;20030;-68
2022/08/17 01:04:26;;;;;;;6.30;3.40;;;;;;;17.23;100.00;90765.31;4994429;28;20495;-67
2022/08/17 01:06:52;;;;;;;5.72;3.10;;;;;;;17.20;100.00;90763.28;4994368;28;20038;-67
2022/08/17 01:09:18;;;;;;;3.55;3.00;;;;;;;17.20;100.00;90764.09;4994324;28;20092;-67
2022/08/17 01:11:45;;;;;;;4.30;3.58;;;;;;;17.26;100.00;90769.97;4994311;28;20022;-68
2022/08/17 01:14:12;;;;;;;5.07;3.10;;;;;;;17.18;100.00;90762.88;4992917;28;20089;-68
2022/08/17 01:16:38;;;;;;;4.68;3.33;;;;;;;17.20;100.00;90776.72;4994176;28;20026;-68
2022/08/17 01:19:17;;;;;;;4.30;3.30;;;;;;;17.08;100.00;90771.50;4994225;28;20034;-68
2022/08/17 01:21:45;;;;;;;5.05;3.67;;;;;;;17.10;100.00;90777.31;4994099;28;20030;-68
2022/08/17 01:24:10;;;;;;;4.68;3.60;;;;;;;17.02;100.00;90779.81;4993946;28;20034;-67
2022/08/17 01:26:38;;;;;;;5.93;2.92;;;;;;;16.96;100.00;90775.88;4994085;28;20562;-67
2022/08/17 01:29:04;;;;;;;3.83;3.28;;;;;;;16.94;100.00;90780.81;4993945;28;20025;-67
2022/08/17 01:31:44;;;;;;;7.32;3.72;;;;;;;16.93;100.00;90767.72;4993978;28;20045;-68
2022/08/17 01:34:13;;;;;;;4.22;3.10;;;;;;;16.96;100.00;90775.88;4993741;28;20092;-68
2022/08/17 01:36:41;;;;;;;6.57;4.13;;;;;;;16.92;100.00;90777.69;4993562;28;20086;-67
2022/08/17 01:39:14;;;;;;;4.93;3.45;;;;;;;16.86;100.00;90768.34;4993830;28;20041;-67
2022/08/17 01:41:40;;;;;;;4.35;3.30;;;;;;;16.86;100.00;90773.72;4993705;28;20113;-67
2022/08/17 01:44:06;;;;;;;5.63;3.03;;;;;;;16.89;100.00;90766.88;4993670;28;20113;-68
2022/08/17 01:46:35;;;;;;;5.03;3.25;;;;;;;16.91;100.00;90759.25;4993685;28;20041;-68
2022/08/17 01:49:07;;;;;;;3.97;3.03;;;;;;;16.86;100.00;90756.81;4993602;28;20476;-68
2022/08/17 01:51:32;;;;;;;5.15;3.53;;;;;;;16.81;100.00;90754.41;4993586;28;20023;-68
2022/08/17 01:54:04;;;;;;;7.05;3.72;;;;;;;16.75;100.00;90743.16;4993349;28;20106;-68
2022/08/17 01:56:32;;;;;;;4.03;3.00;;;;;;;16.81;100.00;90749.81;4993491;28;20034;-68
2022/08/17 01:58:58;;;;;;;6.65;4.28;;;;;;;16.84;100.00;90748.31;4993500;28;20037;-68
2022/08/17 02:01:27;;;;;;;5.40;3.33;;;;;;;16.88;100.00;90755.31;4993460;28;20034;-68
2022/08/17 02:03:54;;;;;;;5.32;3.70;;;;;;;16.82;100.00;90747.91;4992522;28;20042;-68
2022/08/17 02:06:20;;;;;;;4.22;2.78;;;;;;;16.82;100.00;90756.75;4993299;28;20038;-68
2022/08/17 02:08:46;;;;;;;4.97;3.70;;;;;;;16.83;100.00;90752.13;4993315;28;20035;-68
2022/08/17 02:11:16;;;;;;;4.85;3.33;;;;;;;16.92;100.00;90756.19;4993218;28;20517;-68
2022/08/17 02:13:50;;;;;;;3.13;2.80;;;;;;;16.87;100.00;90758.38;4993056;28;20084;-68
2022/08/17 02:16:15;;;;;;;6.70;3.35;;;;;;;16.82;100.00;90766.69;4993120;28;20034;-68
2022/08/17 02:18:41;;;;;;;4.03;3.22;;;;;;;16.74;100.00;90752.34;4993038;28;20036;-69
2022/08/17 02:21:07;;;;;;;5.70;3.63;;;;;;;16.64;100.00;90760.91;4993005;28;20065;-68
2022/08/17 02:23:37;;;;;;;4.82;4.18;;;;;;;16.56;100.00;90759.16;4993177;28;20400;-67
2022/08/17 02:26:04;;;;;;;3.92;3.45;;;;;;;16.41;100.00;90758.88;4992867;28;20397;-67
2022/08/17 02:28:30;;;;;;;6.07;3.95;;;;;;;16.39;100.00;90766.47;4992451;28;20092;-67
2022/08/17 02:30:58;;;;;;;4.50;3.33;;;;;;;16.35;100.00;90770.19;5154366;23;20046;-68
2022/08/17 02:33:27;;;;;;;8.93;3.92;;;;;;;16.25;100.00;90759.97;5012067;28;20037;-68
2022/08/17 02:35:52;;;;;;;3.80;3.08;;;;;;;16.28;100.00;90770.03;5012193;28;20022;-68
2022/08/17 02:38:18;;;;;;;5.05;3.13;;;;;;;16.21;100.00;90770.63;5012329;28;20452;-68
2022/08/17 02:40:43;;;;;;;5.30;3.30;;;;;;;16.05;100.00;90775.97;5012210;28;20018;-68
2022/08/17 02:43:09;;;;;;;5.00;3.47;;;;;;;16.04;100.00;90770.97;5012243;28;20105;-67
2022/08/17 02:45:35;;;;;;;9.68;4.97;;;;;;;16.11;100.00;90773.84;5012017;28;20102;-68
2022/08/17 02:48:01;;;;;;;10.05;5.05;;;;;;;16.10;100.00;90769.59;5011878;28;20044;-68
2022/08/17 02:50:26;;;;;;;4.68;3.40;;;;;;;16.00;100.00;90770.09;5011062;28;20502;-68
2022/08/17 02:52:53;;;;;;;4.53;3.50;;;;;;;15.98;100.00;90775.03;5011806;28;20062;-68
2022/08/17 02:55:25;;;;;;;5.80;3.50;;;;;;;15.87;100.00;90769.38;5011827;28;20026;-68
2022/08/17 02:57:51;;;;;;;5.13;3.67;;;;;;;15.78;100.00;90769.56;5011788;28;20141;-68
2022/08/17 03:00:32;;;;;;;6.13;3.58;;;;;;;15.74;100.00;90776.72;5010245;28;20084;-67
2022/08/17 03:02:58;;;;;;;5.13;3.45;;;;;;;15.70;100.00;90781.22;5011717;28;20029;-67
2022/08/17 03:05:27;;;;;;;3.95;3.25;;;;;;;15.69;100.00;90778.88;5011713;28;20026;-68
2022/08/17 03:07:55;;;;;;;4.65;3.40;;;;;;;15.74;100.00;90781.28;5011564;28;20402;-68
2022/08/17 03:10:23;;;;;;;4.53;3.58;;;;;;;15.70;100.00;90773.16;5011476;28;20038;-68
2022/08/17 03:12:49;;;;;;;4.45;3.42;;;;;;;15.72;100.00;90778.97;5011648;28;20032;-68
2022/08/17 03:15:19;;;;;;;4.35;3.40;;;;;;;15.69;100.00;90778.88;5011634;28;20477;-68
2022/08/17 03:17:44;;;;;;;7.45;3.70;;;;;;;15.62;100.00;90776.78;5011535;28;20022;-68
2022/08/17 03:20:11;;;;;;;6.32;3.22;;;;;;;15.64;100.00;90785.28;5011428;28;20037;-68
2022/08/17 03:22:40;;;;;;;4.68;3.03;;;;;;;15.68;100.00;90785.38;5011522;28;20424;-68
2022/08/17 03:25:09;;;;;;;4.88;3.85;;;;;;;15.67;100.00;90789.94;5011174;28;20042;-68
2022/08/17 03:27:35;;;;;;;4.00;3.55;;;;;;;15.66;100.00;90788.38;5011336;28;20106;-69
2022/08/17 03:30:02;;;;;;;4.60;3.55;;;;;;;15.56;100.00;90794.19;5009789;28;20453;-68
2022/08/17 03:32:28;;;;;;;4.85;3.35;;;;;;;15.53;100.00;90793.00;5011381;28;20061;-69
2022/08/17 03:34:59;;;;;;;6.78;3.25;;;;;;;15.53;100.00;90795.66;5011430;28;20060;-69
2022/08/17 03:37:24;;;;;;;5.43;3.65;;;;;;;15.56;100.00;90796.88;5011247;28;20026;-69
2022/08/17 03:39:49;;;;;;;3.53;3.08;;;;;;;15.59;100.00;90793.53;5011270;28;20030;-69
2022/08/17 03:42:19;;;;;;;6.97;3.67;;;;;;;15.62;100.00;90794.75;5014773;28;20414;-68
2022/08/17 03:44:53;;;;;;;4.95;3.40;;;;;;;15.60;100.00;90797.00;5015425;28;20499;-68
2022/08/17 03:58:18;;;;;;;6.25;3.65;;;;;;;15.66;100.00;90801.78;5015123;28;20041;-68
2022/08/17 04:00:47;;;;;;;5.13;3.40;;;;;;;15.68;100.00;90807.59;5014929;28;20030;-68
2022/08/17 04:03:13;;;;;;;4.20;3.25;;;;;;;15.70;100.00;90804.56;5015099;28;20026;-68
2022/08/17 04:05:39;;;;;;;5.90;3.80;;;;;;;15.79;100.00;90810.56;5015048;28;20037;-68
2022/08/17 04:08:05;;;;;;;4.30;3.40;;;;;;;15.80;100.00;90809.44;5014993;28;20026;-68
2022/08/17 04:10:30;;;;;;;4.55;3.08;;;;;;;15.86;100.00;90813.44;5014809;28;20038;-68
2022/08/17 04:13:00;;;;;;;5.85;3.75;;;;;;;15.94;100.00;90817.06;5014946;28;20072;-68
2022/08/17 04:15:27;;;;;;;8.82;4.15;;;;;;;15.98;100.00;90816.06;5014924;28;20041;-68
2022/08/17 04:17:52;;;;;;;4.05;3.22;;;;;;;16.05;100.00;90818.13;5014915;28;20038;-68
2022/08/17 04:20:21;;;;;;;4.78;3.38;;;;;;;16.10;100.00;90812.53;5014656;28;20503;-68
2022/08/17 04:23:04;;;;;;;3.83;2.80;;;;;;;16.11;100.00;90811.41;5014819;28;20033;-74
2022/08/17 04:25:33;;;;;;;4.47;3.13;;;;;;;16.10;100.00;90807.16;5010579;28;20213;-73
2022/08/17 04:27:59;;;;;;;6.20;3.60;;;;;;;16.22;100.00;90828.53;5014221;28;20034;-74
2022/08/17 04:30:27;;;;;;;4.45;3.22;;;;;;;16.29;100.00;90817.22;5013894;28;20045;-74
2022/08/17 04:33:01;;;;;;;4.15;3.00;;;;;;;16.36;100.00;90815.47;5014387;28;20034;-74
2022/08/17 04:35:30;;;;;;;5.55;3.28;;;;;;;16.46;100.00;90820.34;5014644;28;20065;-73
2022/08/17 04:37:56;;;;;;;3.70;3.05;;;;;;;16.50;100.00;90819.66;5014662;28;20061;-73
2022/08/17 04:43:11;;;;;;;4.88;2.83;;;;;;;16.62;100.00;90814.97;5014767;28;20044;-73
2022/08/17 04:45:46;;;;;;;5.57;3.60;;;;;;;16.71;100.00;90817.50;5014465;28;20511;-73
2022/08/17 04:48:13;;;;;;;4.55;3.35;;;;;;;16.83;100.00;90808.56;5014617;28;20041;-73
2022/08/17 04:50:42;;;;;;;5.35;3.72;;;;;;;17.10;100.00;90809.56;5014399;28;20117;-73
2022/08/17 04:53:08;;;;;;;4.07;3.30;;;;;;;17.27;100.00;90804.56;5013883;28;20479;-75
2022/08/17 04:55:33;;;;;;;3.85;2.95;;;;;;;17.51;100.00;90808.88;5014257;28;20538;-74
2022/08/17 04:57:59;;;;;;;4.93;3.08;;;;;;;17.82;100.00;90812.59;5014169;28;20541;-75
2022/08/17 05:00:24;;;;;;;4.22;3.42;;;;;;;19.91;100.00;90809.78;5014146;28;20028;-75
2022/08/17 05:02:51;;;;;;;6.63;3.63;;;;;;;22.71;83.02;90809.34;5014090;28;20048;-75
2022/08/17 05:05:19;;;;;;;3.75;3.10;;;;;;;24.68;67.39;90821.44;5013966;28;20026;-75
2022/08/17 05:07:44;;;;;;;5.85;3.20;;;;;;;26.04;60.29;90816.47;5013839;28;20033;-75
2022/08/17 05:10:10;;;;;;;3.50;3.20;;;;;;;27.39;54.81;90836.53;5013920;28;20034;-75
2022/08/17 05:12:35;;;;;;;2.35;2.15;;;;;;;27.87;52.65;90829.91;5012566;28;20030;-75
2022/08/17 05:15:01;;;;;;;2.97;2.67;;;;;;;28.51;50.13;90833.44;5013842;28;20438;-75
2022/08/17 05:17:26;;;;;;;4.07;2.60;;;;;;;29.57;47.98;90826.88;5014055;28;20515;-75
2022/08/17 05:19:52;;;;;;;4.13;2.83;;;;;;;29.38;47.28;90837.47;5013604;28;20483;-75
2022/08/17 05:22:17;;;;;;;3.85;2.72;;;;;;;30.14;45.66;90836.41;5012459;28;20034;-75
2022/08/17 05:24:42;;;;;;;3.30;2.50;;;;;;;31.72;43.25;90842.47;5013639;28;20080;-76
2022/08/17 05:27:08;;;;;;;3.17;2.38;;;;;;;32.95;40.73;90834.00;5013578;28;20125;-76
2022/08/17 05:29:33;;;;;;;3.28;2.88;;;;;;;33.09;40.23;90846.47;5013287;28;20058;-76
2022/08/17 05:32:10;;;;;;;3.15;2.75;;;;;;;32.90;40.13;90837.34;5013320;28;20117;-76
2022/08/17 05:34:35;;;;;;;4.80;2.92;;;;;;;33.71;39.09;90843.72;5013735;28;20060;-75
2022/08/17 05:37:01;;;;;;;2.80;2.45;;;;;;;33.80;38.43;90840.25;5013439;28;20534;-76
2022/08/17 05:39:27;;;;;;;3.72;3.00;;;;;;;34.24;37.87;90830.56;4992464;28;20552;-69
2022/08/17 05:41:52;;;;;;;3.80;2.95;;;;;;;34.30;37.56;90841.75;4993852;28;20034;-73
2022/08/17 05:44:18;;;;;;;4.20;2.97;;;;;;;32.20;40.01;90830.31;4993488;28;20022;-73
2022/08/17 05:46:47;;;;;;;2.78;2.40;;;;;;;31.45;41.21;90831.97;4993105;28;20483;-74
2022/08/17 05:49:16;;;;;;;2.85;2.58;;;;;;;31.77;41.20;90828.22;4993304;28;20027;-73
2022/08/17 05:51:57;;;;;;;3.45;2.63;;;;;;;33.15;39.32;90839.19;4993347;28;20073;-73
2022/08/17 05:55:00;;;;;;;2.92;2.45;;;;;;;30.76;42.44;90837.13;4993204;28;20034;-68
2022/08/17 05:57:58;;;;;;;3.35;2.50;;;;;;;31.87;41.09;90835.34;5010700;28;20037;-70
2022/08/17 06:00:36;;;;;;;3.40;2.88;;;;;;;32.50;40.00;90836.41;4993317;28;20076;-69
2022/08/17 06:03:20;;;;;;;3.10;2.70;;;;;;;33.42;38.62;90833.03;5012218;28;20030;-69
2022/08/17 06:06:08;;;;;;;3.35;2.55;;;;;;;34.34;37.55;90831.31;5012429;28;20037;-69
2022/08/17 06:08:39;;;;;;;3.20;2.72;;;;;;;35.86;35.36;90836.84;5012616;28;20030;-69
2022/08/17 06:11:25;;;;;;;3.20;2.50;;;;;;;36.47;34.30;90842.97;5012294;28;20038;-70
2022/08/17 06:14:16;;;;;;;2.65;2.45;;;;;;;37.12;33.55;90832.91;5012472;28;20588;-70
2022/08/17 06:16:50;;;;;;;2.83;2.35;;;;;;;35.56;34.91;90840.63;5012216;28;20030;-69
2022/08/17 06:19:23;;;;;;;4.82;2.50;;;;;;;37.78;32.85;90842.13;5012482;28;20049;-67
2022/08/17 06:21:52;;;;;;;3.92;3.10;;;;;;;39.01;31.52;90833.44;5012144;28;20410;-67
2022/08/17 06:24:22;;;;;;;3.22;2.70;;;;;;;39.23;31.89;90832.94;5012346;28;20040;-67
2022/08/17 06:26:49;;;;;;;2.92;2.72;;;;;;;41.03;30.12;90837.75;5012677;28;20114;-68
2022/08/17 06:29:34;;;;;;;4.07;2.30;;;;;;;41.76;29.58;90835.94;5012282;28;20068;-69
2022/08/17 06:32:01;;;;;;;4.18;2.90;;;;;;;40.41;30.48;90831.91;5011700;28;20057;-68
2022/08/17 06:34:27;;;;;;;4.82;2.90;;;;;;;39.67;31.18;90834.63;5012236;28;20029;-68
2022/08/17 06:37:18;;;;;;;4.38;2.85;;;;;;;39.44;31.24;90833.63;5012133;28;20088;-66
2022/08/17 06:40:03;;;;;;;5.40;4.05;;;;;;;40.01;30.77;90836.44;5012021;28;20034;-69
2022/08/17 06:42:43;;;;;;;6.97;4.20;;;;;;;38.45;32.15;90831.97;5012115;28;20036;-64
2022/08/17 06:45:15;;;;;;;3.33;3.03;;;;;;;39.29;31.83;90835.75;5011755;28;20030;-65
2022/08/17 06:47:57;;;;;;;3.75;3.30;;;;;;;41.12;29.17;90832.72;5011920;28;20117;-67
2022/08/17 06:50:45;;;;;;;4.35;3.20;;;;;;;38.38;31.61;90838.72;5011768;28;20507;-64
2022/08/17 06:53:35;;;;;;;3.30;2.92;;;;;;;39.55;31.68;90836.56;5012012;28;20096;-64
2022/08/17 06:56:10;;;;;;;3.15;2.80;;;;;;;42.57;28.50;90836.91;5011847;28;20069;-64
2022/08/17 06:58:39;;;;;;;5.00;3.30;;;;;;;40.21;30.36;90837.56;5012198;28;20458;-65
2022/08/17 07:01:18;;;;;;;3.35;3.05;;;;;;;40.27;30.97;90841.94;5011079;28;20057;-67
2022/08/17 07:03:53;;;;;;;4.82;3.00;;;;;;;40.86;29.29;90832.13;5011811;28;20151;-67
2022/08/17 07:06:34;;;;;;;5.55;3.50;;;;;;;40.58;29.59;90835.53;5011707;28;20052;-67
2022/08/17 07:09:14;;;;;;;4.43;3.47;;;;;;;41.84;28.59;90846.09;5012637;28;20826;-66
2022/08/17 07:11:48;;;;;;;4.35;3.28;;;;;;;42.04;27.81;90845.06;5011510;28;20033;-66
2022/08/17 07:14:36;;;;;;;3.17;2.42;;;;;;;39.14;29.13;90847.03;5011484;28;20030;-66
2022/08/17 07:17:12;;;;;;;3.38;3.08;;;;;;;39.45;29.70;90844.31;5011514;28;20026;-64
2022/08/17 07:19:40;;;;;;;10.25;4.78;;;;;;;40.63;28.66;90845.97;5011448;28;20030;-65
2022/08/17 07:22:26;;;;;;;6.38;2.83;;;;;;;42.12;26.48;90848.13;5011487;28;20490;-66
2022/08/17 07:25:01;;;;;;;2.63;2.42;;;;;;;42.34;25.23;90847.34;5011446;28;20417;-66
2022/08/17 07:27:30;;;;;;;3.67;3.10;;;;;;;41.69;27.33;90847.63;5011340;28;20109;-65
2022/08/17 07:30:17;;;;;;;2.70;2.50;;;;;;;42.00;26.96;90844.56;5010630;28;20033;-65
2022/08/17 07:32:47;;;;;;;2.95;2.60;;;;;;;41.75;27.54;90843.53;5011360;28;20038;-65
2022/08/17 07:35:21;;;;;;;3.25;2.95;;;;;;;40.48;28.45;90837.00;5011358;28;20070;-65
2022/08/17 07:38:07;;;;;;;4.80;2.85;;;;;;;41.03;27.33;90832.97;5011531;28;20488;-65
2022/08/17 07:40:40;;;;;;;6.20;2.80;;;;;;;41.13;27.35;90839.84;5011226;28;20045;-65
2022/08/17 07:43:22;;;;;;;4.35;2.80;;;;;;;40.15;28.02;90837.56;5011232;28;20474;-65
2022/08/17 07:49:22;;;;;;;3.25;2.80;;;;;;;42.53;25.41;90844.81;5011105;28;20204;-65
2022/08/17 07:51:49;;;;;;;4.40;2.75;;;;;;;42.27;26.53;90845.06;5011042;28;20426;-65
2022/08/17 07:54:14;;;;;;;3.13;2.60;;;;;;;41.48;27.63;90836.63;5011135;28;20120;-66
2022/08/17 07:56:46;;;;;;;2.60;2.40;;;;;;;43.73;26.07;90845.34;5011219;28;20200;-66
2022/08/17 07:59:21;;;;;;;4.07;3.08;;;;;;;41.16;27.56;90832.47;5011074;28;20415;-66
2022/08/17 08:01:57;;;;;;;3.17;2.88;;;;;;;41.79;27.27;90837.69;5010981;28;20034;-66
2022/08/17 08:04:35;;;;;;;2.90;2.65;;;;;;;43.50;25.15;90831.44;5011032;28;20041;-66
2022/08/17 08:07:05;;;;;;;4.38;3.22;;;;;;;42.25;26.53;90836.44;5011049;28;20128;-66
2022/08/17 08:09:34;;;;;;;3.15;2.70;;;;;;;41.20;27.64;90830.97;5010814;28;20038;-66
2022/08/17 08:12:23;;;;;;;3.28;2.75;;;;;;;37.84;30.58;90838.16;5011005;28;20045;-66
2022/08/17 08:15:20;;;;;;;2.63;2.42;;;;;;;40.56;27.82;90826.91;5010564;28;20048;-65
2022/08/17 08:17:56;;;;;;;2.80;2.42;;;;;;;40.97;27.08;90830.13;5002003;28;20050;-66
2022/08/17 08:20:32;;;;;;;2.97;2.67;;;;;;;40.71;28.85;90826.72;5010806;28;20111;-66
2022/08/17 08:23:40;;;;;;;3.60;3.30;;;;;;;37.89;30.64;90831.19;5010874;28;20038;-65
2022/08/17 08:26:25;;;;;;;4.20;3.08;;;;;;;33.03;36.63;90821.50;5010799;28;20092;-65
2022/08/17 08:29:00;;;;;;;3.58;3.03;;;;;;;30.88;40.72;90819.91;5014002;28;20052;-66
2022/08/17 08:32:17;;;;;;;4.03;3.63;;;;;;;33.57;37.64;90823.00;5014129;28;20058;-67
2022/08/17 08:34:55;;;;;;;2.83;2.63;;;;;;;35.67;34.94;90818.75;5002422;28;20067;-66
2022/08/17 08:37:42;;;;;;;3.22;2.63;;;;;;;38.80;31.14;90815.25;5014371;28;20092;-66
2022/08/17 08:40:25;;;;;;;2.83;2.45;;;;;;;39.22;30.27;90809.91;5014189;28;20069;-66
2022/08/17 08:43:11;;;;;;;2.97;2.65;;;;;;;39.70;29.65;90819.72;5014322;28;20446;-66
2022/08/17 08:45:48;;;;;;;2.97;2.78;;;;;;;38.64;31.66;90814.56;5014078;28;20479;-66
2022/08/17 08:48:26;;;;;;;3.58;2.80;;;;;;;38.97;30.57;90815.41;5014183;28;20057;-66
2022/08/17 08:51:47;;;;;;;3.70;2.92;;;;;;;38.63;31.72;90812.22;5013806;28;20418;-66
2022/08/17 08:54:33;;;;;;;3.13;2.78;;;;;;;35.20;34.60;90808.28;4940392;28;20095;-67
2022/08/17 08:57:14;;;;;;;9.10;3.80;;;;;;;32.80;38.47;90802.63;5014021;28;20468;-67
2022/08/17 09:00:08;;;;;;;3.80;3.05;;;;;;;31.05;40.91;90806.84;5013523;28;20037;-67
2022/08/17 09:03:08;;;;;;;4.53;2.83;;;;;;;30.78;42.72;90807.25;5013979;28;20430;-66
2022/08/17 09:05:39;;;;;;;4.18;3.60;;;;;;;34.54;37.81;90803.25;5013848;28;20030;-66
2022/08/17 09:08:20;;;;;;;4.40;3.40;;;;;;;34.52;36.22;90802.97;5013880;28;20419;-67
2022/08/17 09:11:07;;;;;;;3.65;3.35;;;;;;;29.98;43.46;90802.31;5013611;28;20049;-66
2022/08/17 09:14:01;;;;;;;4.80;4.30;;;;;;;28.20;46.39;90803.50;5013017;28;20053;-66
2022/08/17 09:16:36;;;;;;;5.35;3.42;;;;;;;27.68;47.83;90812.28;5013655;28;20034;-69
2022/08/17 09:19:15;;;;;;;3.80;3.33;;;;;;;27.46;50.61;90808.34;5013539;28;20431;-66
2022/08/17 09:22:00;;;;;;;3.90;3.38;;;;;;;28.24;49.36;90803.44;5013662;28;20117;-66
2022/08/17 09:24:38;;;;;;;3.50;3.20;;;;;;;32.71;41.09;90800.59;5013532;28;20044;-66
2022/08/17 09:27:13;;;;;;;3.40;2.83;;;;;;;32.67;39.68;90811.00;5013203;28;20042;-66
2022/08/17 09:29:46;;;;;;;4.40;2.88;;;;;;;31.61;41.33;90800.81;5011542;28;20427;-67
2022/08/17 09:32:30;;;;;;;5.60;3.17;;;;;;;29.87;43.19;90807.31;5013155;28;20096;-66
2022/08/17 09:35:01;;;;;;;3.97;2.72;;;;;;;28.01;43.88;90820.69;5013268;28;20046;-66
2022/08/17 09:37:30;;;;;;;3.63;2.80;;;;;;;27.20;46.16;90815.38;5013311;28;20048;-66
2022/08/17 09:40:20;;;;;;;3.30;3.00;;;;;;;26.07;53.43;90820.34;5012309;28;20103;-65
2022/08/17 09:42:47;;;;;;;3.85;3.28;;;;;;;25.42;68.42;90830.28;5012855;28;20069;-65
2022/08/17 09:45:48;;;;;;;3.40;2.75;;;;;;;24.62;70.74;90825.75;5012882;28;20034;-65
2022/08/17 09:48:19;;;;;;;9.55;3.55;;;;;;;23.80;100.00;90839.59;5012906;28;20044;-69
2022/08/17 09:51:07;;;;;;;4.65;3.40;;;;;;;23.30;100.00;90842.34;5012680;28;20033;-67
2022/08/17 09:53:36;;;;;;;9.45;5.63;;;;;;;23.01;100.00;90838.84;5012694;28;20116;-66
2022/08/17 09:56:28;;;;;;;6.43;4.50;;;;;;;22.96;100.00;90840.03;5012581;28;20164;-66
2022/08/17 09:59:39;;;;;;;6.10;4.10;;;;;;;23.10;100.00;90839.25;5008886;28;20042;-66
2022/08/17 10:02:18;;;;;;;5.38;4.00;;;;;;;23.23;100.00;90829.56;5004436;28;20108;-67
2022/08/17 10:05:01;;;;;;;5.38;3.53;;;;;;;23.96;100.00;90837.22;5012802;28;20442;-66
2022/08/17 10:07:42;;;;;;;4.78;3.97;;;;;;;24.75;94.94;90826.81;5012993;28;20487;-67
2022/08/17 10:10:19;;;;;;;4.90;3.80;;;;;;;25.28;92.82;90826.50;5011402;28;20077;-66
2022/08/17 10:13:15;;;;;;;6.00;3.95;;;;;;;25.61;91.82;90830.47;5013092;28;20069;-66
2022/08/17 10:16:01;;;;;;;7.07;4.45;;;;;;;27.51;99.30;90821.53;5012791;28;20038;-66
2022/08/17 10:18:45;;;;;;;11.35;6.70;;;;;;;28.36;72.54;90819.25;5012666;28;20038;-67
2022/08/17 10:26:54;;;;;;;6.17;4.43;;;;;;;34.40;57.51;90817.69;5012535;28;20041;-67
2022/08/17 10:29:32;;;;;;;4.95;3.67;;;;;;;37.18;48.35;90817.09;5012331;28;20288;-66
2022/08/17 10:32:04;;;;;;;3.47;2.90;;;;;;;39.68;39.56;90811.84;5012163;28;20084;-67
2022/08/17 10:35:11;;;;;;;4.73;3.83;;;;;;;40.73;37.73;90809.50;5011865;28;20044;-67
2022/08/17 10:38:07;;;;;;;6.68;3.47;;;;;;;41.96;35.37;90818.13;4990564;28;20542;-66
2022/08/17 10:40:50;;;;;;;3.30;3.00;;;;;;;41.71;32.91;90819.94;4990294;28;20042;-66
2022/08/17 10:43:49;;;;;;;4.60;3.50;;;;;;;43.16;33.32;90818.88;5007335;28;20050;-66
2022/08/17 10:46:18;;;;;;;5.28;3.20;;;;;;;41.21;33.96;90812.19;5012173;28;20037;-66
2022/08/17 10:49:19;;;;;;;5.28;3.35;;;;;;;39.85;32.54;90811.97;5012190;28;20518;-66
2022/08/17 10:51:47;;;;;;;4.28;3.30;;;;;;;37.83;35.29;90813.66;5012047;28;20153;-66
2022/08/17 10:54:39;;;;;;;6.00;4.05;;;;;;;33.21;40.61;90809.03;5011979;28;20520;-66
2022/08/17 10:57:26;;;;;;;3.55;3.10;;;;;;;31.21;40.83;90804.00;5011904;28;20088;-66
2022/08/17 10:59:55;;;;;;;3.63;3.22;;;;;;;29.35;45.15;90799.16;5011747;28;20045;-66
2022/08/17 11:02:44;;;;;;;2.88;2.58;;;;;;;28.24;50.22;90806.19;5011920;28;20042;-67
2022/08/17 11:05:40;;;;;;;3.78;3.33;;;;;;;27.14;58.82;90804.16;5011942;28;20112;-67
2022/08/17 11:08:22;;;;;;;5.13;3.35;;;;;;;26.13;69.75;90797.66;5012067;28;20061;-67
2022/08/17 11:11:34;;;;;;;3.78;3.42;;;;;;;25.63;72.54;90797.38;5011602;28;20116;-67
2022/08/17 11:14:07;;;;;;;4.82;3.75;;;;;;;25.57;77.59;90799.00;5011232;28;20073;-66
2022/08/17 11:17:06;;;;;;;3.97;3.30;;;;;;;25.46;87.46;90803.78;5011814;28;20044;-67
2022/08/17 11:19:50;;;;;;;4.20;3.50;;;;;;;25.42;88.64;90792.16;5011651;28;20026;-67
2022/08/17 11:22:32;;;;;;;5.65;3.80;;;;;;;25.45;83.29;90794.06;5011693;28;20034;-67
2022/08/17 11:25:12;;;;;;;6.22;4.75;;;;;;;25.61;87.04;90786.13;5011714;28;20034;-66
2022/08/17 11:27:38;;;;;;;4.40;4.00;;;;;;;25.77;78.34;90801.97;5011645;28;20487;-66
2022/08/17 11:30:06;;;;;;;4.18;3.70;;;;;;;25.81;76.62;90798.00;5011302;28;20045;-66
2022/08/17 11:32:45;;;;;;;15.80;12.45;;;;;;;26.25;73.27;90805.31;5011539;28;20048;-67
2022/08/17 11:35:20;;;;;;;8.60;7.80;;;;;;;26.34;72.52;90793.88;5011548;28;20581;-66
2022/08/17 11:37:48;;;;;;;5.38;4.85;;;;;;;26.59;69.48;90795.56;5014895;28;20068;-66
2022/08/17 11:40:20;;;;;;;5.10;4.32;;;;;;;26.93;67.23;90795.47;5011423;28;20034;-66
2022/08/17 11:42:46;;;;;;;5.13;4.50;;;;;;;27.14;68.89;90804.16;5011464;28;20426;-65
2022/08/17 11:45:37;;;;;;;9.95;4.20;;;;;;;27.70;62.08;90803.66;5011438;28;20128;-67
2022/08/17 11:51:59;;;;;;;4.60;4.00;;;;;;;29.65;52.97;90795.31;5011426;28;20188;-67
2022/08/17 11:54:34;;;;;;;3.67;3.25;;;;;;;32.33;46.45;90803.53;5011360;28;20453;-67
2022/08/17 11:57:28;;;;;;;3.40;3.03;;;;;;;35.21;37.83;90802.28;5011387;28;20127;-67
2022/08/17 12:00:05;;;;;;;2.97;2.63;;;;;;;37.68;37.14;90800.53;5008476;28;20046;-68
2022/08/17 12:02:37;;;;;;;3.75;2.90;;;;;;;36.47;36.01;90790.31;5013280;28;20045;-66
2022/08/17 12:05:21;;;;;;;4.60;2.88;;;;;;;38.80;32.35;90802.09;5015277;28;20091;-67
2022/08/17 12:07:52;;;;;;;4.15;2.80;;;;;;;40.26;32.33;90800.63;5015182;28;20112;-66
2022/08/17 12:10:29;;;;;;;3.00;2.70;;;;;;;39.28;31.77;90796.03;5015025;28;20037;-65
2022/08/17 12:12:55;;;;;;;2.88;2.55;;;;;;;39.65;31.53;90787.03;5014957;28;20042;-69
2022/08/17 12:15:36;;;;;;;3.20;2.90;;;;;;;38.29;32.47;90788.81;5015066;28;20045;-70
2022/08/17 12:18:02;;;;;;;3.55;2.85;;;;;;;37.87;34.93;90794.78;5015014;28;20045;-70
2022/08/17 12:20:41;;;;;;;4.35;3.05;;;;;;;37.57;33.86;90789.28;5014833;28;20038;-70
2022/08/17 12:23:39;;;;;;;3.53;2.75;;;;;;;38.13;32.62;90784.53;5014973;28;20557;-70
2022/08/17 12:26:20;;;;;;;3.45;2.70;;;;;;;35.68;37.35;90776.75;5015029;28;20042;-70
2022/08/17 12:28:48;;;;;;;4.05;3.30;;;;;;;33.34;37.80;90774.66;5014766;28;20072;-69
2022/08/17 12:31:34;;;;;;;4.68;2.78;;;;;;;32.97;39.69;90775.66;5014353;28;20085;-70